Time;durP1;ratioP1;P1;durP2;ratioP2;P2;SDS_P1;SDS_P2;PMS_P1;PMS_P2;Temp;Humidity;BMP_temperature;BMP_pressure;BME280_temperature;BME280_humidity;BME280_pressure;Samples;Min_cycle;Max_cycle;Signal;HPM_P1;HPM_P2
2022/09/14 00:00:41;;;;;;;1.63;1.20;;;14.20;99.90;;;;;;6339799;28;20286;-68
2022/09/14 00:03:46;;;;;;;1.20;1.20;;;14.20;99.90;;;;;;6340276;28;20270;-68
2022/09/14 00:06:51;;;;;;;1.17;0.90;;;14.20;99.90;;;;;;6338505;28;20290;-67
2022/09/14 00:09:57;;;;;;;1.02;1.02;;;14.20;99.90;;;;;;6339959;28;20301;-67
2022/09/14 00:13:04;;;;;;;1.95;0.90;;;14.20;99.90;;;;;;6355956;28;20270;-67
2022/09/14 00:16:16;;;;;;;3.20;1.10;;;14.10;99.90;;;;;;6339631;28;20293;-68
2022/09/14 00:19:25;;;;;;;2.03;0.90;;;14.20;99.90;;;;;;6339470;28;20278;-67
2022/09/14 00:22:30;;;;;;;2.75;1.13;;;14.20;99.90;;;;;;6340350;28;20270;-67
2022/09/14 00:25:36;;;;;;;1.15;1.00;;;14.10;99.90;;;;;;6339246;28;20289;-68
2022/09/14 00:28:45;;;;;;;5.80;1.23;;;14.00;99.90;;;;;;6331934;28;20496;-69
2022/09/14 00:31:50;;;;;;;3.33;1.75;;;14.00;99.90;;;;;;6339319;28;20612;-68
2022/09/14 00:34:55;;;;;;;3.88;1.25;;;14.00;99.90;;;;;;6339377;28;20289;-68
2022/09/14 00:38:01;;;;;;;2.22;1.27;;;14.00;99.90;;;;;;6339285;28;20265;-68
2022/09/14 00:41:10;;;;;;;2.95;1.17;;;14.00;99.90;;;;;;6338862;28;20298;-67
2022/09/14 00:45:02;;;;;;;2.50;1.13;;;14.00;99.90;;;;;;6339017;28;20277;-67
2022/09/14 00:48:07;;;;;;;1.00;1.00;;;14.00;99.90;;;;;;6339175;28;20274;-67
2022/09/14 00:51:13;;;;;;;1.67;0.93;;;14.00;99.90;;;;;;6338720;28;20302;-67
2022/09/14 00:54:19;;;;;;;1.00;1.00;;;13.90;99.90;;;;;;6338812;28;20278;-67
2022/09/14 00:57:27;;;;;;;1.10;1.10;;;13.80;99.90;;;;;;6339520;28;20265;-67
2022/09/14 01:00:34;;;;;;;1.58;1.05;;;13.90;99.90;;;;;;6338635;28;20297;-67
2022/09/14 01:03:39;;;;;;;1.00;1.00;;;13.90;99.90;;;;;;6337875;28;20274;-67
2022/09/14 01:06:56;;;;;;;2.05;1.15;;;13.80;99.90;;;;;;6337709;28;20294;-69
2022/09/14 01:10:08;;;;;;;1.30;1.20;;;13.80;99.90;;;;;;6338400;28;20298;-68
2022/09/14 01:13:28;;;;;;;1.20;1.10;;;13.80;99.90;;;;;;6339187;28;20266;-68
2022/09/14 01:16:42;;;;;;;1.55;1.15;;;13.80;99.90;;;;;;6338291;28;20625;-68
2022/09/14 01:20:11;;;;;;;1.00;1.00;;;13.80;99.90;;;;;;6338242;28;20289;-67
2022/09/14 01:23:22;;;;;;;4.82;1.30;;;13.80;99.90;;;;;;6338903;28;20645;-68
2022/09/14 01:27:16;;;;;;;1.42;1.33;;;13.80;99.90;;;;;;6337867;28;20298;-68
2022/09/14 01:30:23;;;;;;;1.00;1.00;;;13.80;99.90;;;;;;6337754;28;20427;-68
2022/09/14 01:33:33;;;;;;;1.17;1.17;;;13.70;99.90;;;;;;6338683;28;20266;-68
2022/09/14 01:36:41;;;;;;;1.00;1.00;;;13.70;99.90;;;;;;6338037;28;20294;-68
2022/09/14 01:39:52;;;;;;;2.65;1.00;;;13.70;99.90;;;;;;6337736;28;20293;-68
2022/09/14 01:43:05;;;;;;;1.27;1.08;;;13.70;99.90;;;;;;6338438;28;20273;-68
2022/09/14 01:46:13;;;;;;;4.10;1.20;;;13.80;99.90;;;;;;6337801;28;20298;-68
2022/09/14 01:49:24;;;;;;;1.20;1.00;;;13.70;99.90;;;;;;6337882;28;20457;-69
2022/09/14 01:52:34;;;;;;;1.27;1.17;;;13.70;99.90;;;;;;6337888;28;20270;-68
2022/09/14 01:55:43;;;;;;;1.77;1.60;;;13.80;99.90;;;;;;6337599;28;20293;-68
2022/09/14 01:58:55;;;;;;;0.90;0.90;;;13.80;99.90;;;;;;6338140;28;20265;-68
2022/09/14 02:02:05;;;;;;;1.23;1.10;;;13.90;99.90;;;;;;6337459;28;20306;-68
2022/09/14 02:05:17;;;;;;;1.50;1.15;;;13.90;99.90;;;;;;6337263;28;20295;-68
2022/09/14 02:08:22;;;;;;;1.50;1.17;;;13.90;99.90;;;;;;6337794;28;20262;-68
2022/09/14 02:11:27;;;;;;;1.38;1.20;;;13.90;99.90;;;;;;6337159;28;20297;-67
2022/09/14 02:14:34;;;;;;;1.27;1.20;;;13.90;99.90;;;;;;6337216;28;20402;-68
2022/09/14 02:17:39;;;;;;;1.73;1.15;;;13.90;99.90;;;;;;6337097;28;20578;-68
2022/09/14 02:20:50;;;;;;;1.73;1.20;;;14.00;99.90;;;;;;6335826;28;20620;-68
2022/09/14 02:23:56;;;;;;;1.40;1.35;;;14.00;99.90;;;;;;6337005;28;20270;-68
2022/09/14 02:27:02;;;;;;;1.52;1.10;;;14.00;99.90;;;;;;6336786;28;20298;-68
2022/09/14 02:30:11;;;;;;;1.17;1.08;;;14.00;99.90;;;;;;6335337;28;20298;-68
2022/09/14 02:33:25;;;;;;;1.00;1.00;;;14.00;99.90;;;;;;6337099;28;20251;-67
2022/09/14 02:36:39;;;;;;;1.40;1.17;;;14.00;99.90;;;;;;6336161;28;20305;-67
2022/09/14 02:40:04;;;;;;;3.03;1.20;;;13.90;99.90;;;;;;6336389;28;20293;-68
2022/09/14 02:43:33;;;;;;;2.67;1.30;;;14.00;99.90;;;;;;6336231;28;20269;-67
2022/09/14 02:46:49;;;;;;;1.23;1.13;;;14.00;99.90;;;;;;6336109;28;20297;-68
2022/09/14 02:50:08;;;;;;;1.33;1.20;;;14.00;99.90;;;;;;6336336;28;20290;-68
2022/09/14 02:53:20;;;;;;;1.45;1.35;;;14.00;99.90;;;;;;6336279;28;20266;-68
2022/09/14 02:56:27;;;;;;;1.42;1.33;;;13.90;99.90;;;;;;6336277;28;20294;-68
2022/09/14 02:59:32;;;;;;;4.35;1.42;;;13.90;99.90;;;;;;6336065;28;20290;-68
2022/09/14 03:02:39;;;;;;;5.03;1.30;;;14.00;99.90;;;;;;6334497;28;20303;-68
2022/09/14 03:05:44;;;;;;;1.88;1.35;;;13.90;99.90;;;;;;6335994;28;20432;-68
2022/09/14 03:08:49;;;;;;;4.13;1.60;;;13.90;99.90;;;;;;6350985;28;20301;-68
2022/09/14 03:11:55;;;;;;;1.20;1.20;;;13.80;99.90;;;;;;6336154;28;20285;-68
2022/09/14 03:15:00;;;;;;;3.05;1.40;;;13.70;99.90;;;;;;6336083;28;20297;-68
2022/09/14 03:18:08;;;;;;;1.10;1.10;;;13.70;99.90;;;;;;6335277;28;20313;-69
2022/09/14 03:21:18;;;;;;;1.30;1.10;;;13.70;99.90;;;;;;6310586;28;20279;-68
2022/09/14 03:24:24;;;;;;;1.23;1.10;;;13.60;99.90;;;;;;6310552;28;20597;-68
2022/09/14 03:27:29;;;;;;;1.10;1.10;;;13.70;99.90;;;;;;6310249;28;20437;-68
2022/09/14 03:30:36;;;;;;;1.20;1.20;;;13.70;99.90;;;;;;6310496;28;20318;-68
2022/09/14 03:33:42;;;;;;;0.90;0.90;;;13.70;99.90;;;;;;6310526;28;20298;-68
2022/09/14 03:36:48;;;;;;;0.93;0.93;;;13.80;99.90;;;;;;6323660;28;20424;-68
2022/09/14 03:39:53;;;;;;;2.30;1.00;;;13.60;99.90;;;;;;6335724;28;20298;-68
2022/09/14 03:42:58;;;;;;;0.88;0.70;;;13.50;99.90;;;;;;6335515;28;20465;-68
2022/09/14 03:46:06;;;;;;;0.88;0.88;;;13.50;99.90;;;;;;6335815;28;20270;-67
2022/09/14 03:49:13;;;;;;;1.33;0.93;;;13.50;99.90;;;;;;6334853;28;20294;-68
2022/09/14 03:52:19;;;;;;;1.77;0.80;;;13.50;99.90;;;;;;6335087;28;20293;-68
2022/09/14 03:55:24;;;;;;;0.60;0.60;;;13.50;99.90;;;;;;6334894;28;20488;-68
2022/09/14 03:58:33;;;;;;;1.52;0.80;;;13.50;99.90;;;;;;6334884;28;20487;-68
2022/09/14 04:01:38;;;;;;;0.70;0.70;;;13.30;99.90;;;;;;6335295;28;20274;-67
2022/09/14 04:04:47;;;;;;;0.70;0.70;;;13.40;99.90;;;;;;6335451;28;20633;-67
2022/09/14 04:07:52;;;;;;;0.80;0.80;;;13.50;99.90;;;;;;6335112;28;20289;-68
2022/09/14 04:10:57;;;;;;;1.00;1.00;;;13.50;99.90;;;;;;6335397;28;20282;-68
2022/09/14 04:14:04;;;;;;;2.35;1.00;;;13.50;99.90;;;;;;6334831;28;20302;-68
2022/09/14 04:17:11;;;;;;;1.17;1.10;;;13.30;99.90;;;;;;6335403;28;20266;-67
2022/09/14 04:20:18;;;;;;;2.45;0.90;;;13.30;99.90;;;;;;6333945;28;20290;-67
2022/09/14 04:23:23;;;;;;;3.40;1.10;;;13.40;99.90;;;;;;6334752;28;20298;-68
2022/09/14 04:26:30;;;;;;;1.02;1.02;;;13.30;99.90;;;;;;6335079;28;20275;-68
2022/09/14 04:29:35;;;;;;;1.30;1.20;;;13.40;99.90;;;;;;6334293;28;20305;-67
2022/09/14 04:32:43;;;;;;;1.10;1.10;;;13.40;99.90;;;;;;6334138;28;20482;-68
2022/09/14 04:36:00;;;;;;;1.17;1.10;;;13.40;99.90;;;;;;6334836;28;20270;-68
2022/09/14 04:39:06;;;;;;;1.23;1.05;;;13.30;99.90;;;;;;6334305;28;20298;-68
2022/09/14 04:42:12;;;;;;;1.05;1.05;;;13.30;99.90;;;;;;6335849;28;20273;-68
2022/09/14 04:45:17;;;;;;;1.60;1.27;;;13.30;99.90;;;;;;6338970;28;20298;-68
2022/09/14 04:48:22;;;;;;;1.30;1.30;;;13.30;99.90;;;;;;6338926;28;20297;-68
2022/09/14 04:51:31;;;;;;;1.70;1.60;;;13.30;99.90;;;;;;6338927;28;20275;-68
2022/09/14 04:54:36;;;;;;;1.23;1.23;;;13.20;99.90;;;;;;6338755;28;20303;-68
2022/09/14 04:57:41;;;;;;;1.23;1.23;;;13.20;99.90;;;;;;6338715;28;20294;-68
2022/09/14 05:00:46;;;;;;;2.35;1.52;;;13.20;99.90;;;;;;6338724;28;20265;-67
2022/09/14 05:03:53;;;;;;;1.20;1.20;;;13.20;99.90;;;;;;6338317;28;20612;-67
2022/09/14 05:07:00;;;;;;;1.40;1.40;;;13.20;99.90;;;;;;6339239;28;20274;-67
2022/09/14 05:10:07;;;;;;;1.35;1.25;;;13.20;99.90;;;;;;6336292;28;20293;-68
2022/09/14 05:13:15;;;;;;;1.85;1.30;;;13.10;99.90;;;;;;6337916;28;20298;-68
2022/09/14 05:16:22;;;;;;;3.40;1.60;;;13.20;99.90;;;;;;6338472;28;20458;-69
2022/09/14 05:19:28;;;;;;;1.20;1.20;;;13.30;99.90;;;;;;6338090;28;20294;-67
2022/09/14 05:22:34;;;;;;;1.25;1.25;;;13.30;99.90;;;;;;6337702;28;20265;-69
2022/09/14 05:25:39;;;;;;;2.25;1.38;;;13.10;99.90;;;;;;6338074;28;20274;-69
2022/09/14 05:28:51;;;;;;;1.65;1.20;;;13.20;99.90;;;;;;6330293;28;20397;-67
2022/09/14 05:31:56;;;;;;;1.15;1.15;;;13.20;99.90;;;;;;6312714;28;20464;-68
2022/09/14 05:35:01;;;;;;;1.30;1.27;;;13.30;99.90;;;;;;6312553;28;20589;-67
2022/09/14 05:38:08;;;;;;;1.35;1.30;;;13.20;99.90;;;;;;6311801;28;20476;-68
2022/09/14 05:41:15;;;;;;;1.35;1.25;;;13.30;99.90;;;;;;6312757;28;20449;-68
2022/09/14 05:44:20;;;;;;;5.82;1.55;;;13.30;99.90;;;;;;6312437;28;20617;-68
2022/09/14 05:47:25;;;;;;;1.65;1.60;;;13.20;99.90;;;;;;6312064;28;20274;-67
2022/09/14 05:50:31;;;;;;;1.50;1.40;;;13.20;99.90;;;;;;6312431;28;20266;-67
2022/09/14 05:53:38;;;;;;;1.30;1.30;;;13.20;99.90;;;;;;6311723;28;20311;-68
2022/09/14 05:56:43;;;;;;;3.03;1.40;;;13.20;99.90;;;;;;6312143;28;20270;-67
2022/09/14 05:59:48;;;;;;;1.35;1.35;;;13.30;99.90;;;;;;6311819;28;20294;-67
2022/09/14 06:02:55;;;;;;;1.40;1.40;;;13.40;99.90;;;;;;6311929;28;20286;-68
2022/09/14 06:06:00;;;;;;;3.33;1.35;;;13.50;99.90;;;;;;6311881;28;20270;-68
2022/09/14 06:09:07;;;;;;;1.63;1.63;;;13.40;99.90;;;;;;6311746;28;20293;-68
2022/09/14 06:12:13;;;;;;;2.00;1.77;;;13.40;99.90;;;;;;6310014;28;20262;-69
2022/09/14 06:15:18;;;;;;;1.70;1.63;;;13.40;99.90;;;;;;6310553;28;20306;-69
2022/09/14 06:18:23;;;;;;;1.73;1.52;;;13.40;99.90;;;;;;6311500;28;20290;-69
2022/09/14 06:21:32;;;;;;;3.15;1.50;;;13.50;99.90;;;;;;6311760;28;20267;-68
2022/09/14 06:24:38;;;;;;;2.15;1.38;;;13.50;99.90;;;;;;6311554;28;20314;-68
2022/09/14 06:27:43;;;;;;;1.33;1.30;;;13.50;99.90;;;;;;6311542;28;20290;-67
2022/09/14 06:30:49;;;;;;;1.50;1.40;;;13.50;99.90;;;;;;6335997;28;20309;-68
2022/09/14 06:33:54;;;;;;;2.50;1.10;;;13.40;99.90;;;;;;6335735;28;20298;-67
2022/09/14 06:36:59;;;;;;;1.20;1.20;;;13.60;99.90;;;;;;6336693;28;20266;-67
2022/09/14 06:40:07;;;;;;;1.67;1.40;;;13.60;99.90;;;;;;6336129;28;20298;-68
2022/09/14 06:43:12;;;;;;;1.48;1.30;;;13.60;99.90;;;;;;6336171;28;20290;-68
2022/09/14 06:46:20;;;;;;;1.23;1.08;;;13.50;99.90;;;;;;6336747;28;20265;-68
2022/09/14 06:49:25;;;;;;;1.05;1.05;;;13.40;99.90;;;;;;6335353;28;20293;-67
2022/09/14 06:54:21;;;;;;;1.00;1.00;;;13.40;99.90;;;;;;6257915;28;20820;-69
2022/09/14 06:57:26;;;;;;;3.78;1.17;;;13.30;99.90;;;;;;6256012;28;20280;-69
2022/09/14 07:00:31;;;;;;;1.85;1.30;;;13.30;99.90;;;;;;6263465;28;20294;-69
2022/09/14 07:03:39;;;;;;;0.95;0.95;;;13.40;99.90;;;;;;6271603;28;20292;-69
2022/09/14 07:06:46;;;;;;;1.20;1.05;;;13.50;99.90;;;;;;6257616;28;20272;-69
2022/09/14 07:09:52;;;;;;;1.48;0.90;;;13.50;99.90;;;;;;6261279;28;20290;-69
2022/09/14 07:12:59;;;;;;;1.52;1.00;;;13.50;99.90;;;;;;6281765;28;20295;-68
2022/09/14 07:16:05;;;;;;;1.35;1.10;;;13.50;99.90;;;;;;6282255;28;20554;-68
2022/09/14 07:19:14;;;;;;;1.30;0.80;;;13.50;99.90;;;;;;6281465;28;20298;-68
2022/09/14 07:22:19;;;;;;;0.90;0.90;;;13.50;99.90;;;;;;6282070;28;20279;-68
2022/09/14 07:25:26;;;;;;;1.45;1.20;;;13.50;99.90;;;;;;6281208;28;20270;-68
2022/09/14 07:28:31;;;;;;;1.65;1.05;;;13.50;99.90;;;;;;6281453;28;20282;-68
2022/09/14 07:31:40;;;;;;;4.28;0.95;;;13.60;99.90;;;;;;6281612;28;20462;-67
2022/09/14 07:34:46;;;;;;;0.90;0.90;;;13.50;99.90;;;;;;6281246;28;20299;-67
2022/09/14 07:37:51;;;;;;;1.48;0.90;;;13.60;99.90;;;;;;6280803;28;20294;-67
2022/09/14 07:40:59;;;;;;;0.82;0.82;;;13.70;99.90;;;;;;6281630;28;20271;-68
2022/09/14 07:44:06;;;;;;;0.70;0.70;;;13.70;99.90;;;;;;6271043;28;20287;-67
2022/09/14 07:47:12;;;;;;;1.75;1.00;;;13.70;99.90;;;;;;6252668;28;20250;-67
2022/09/14 07:50:17;;;;;;;0.85;0.85;;;13.70;99.90;;;;;;6255599;28;21813;-68
2022/09/14 07:53:23;;;;;;;2.10;0.88;;;13.80;99.90;;;;;;6254979;28;20515;-67
2022/09/14 07:56:29;;;;;;;0.85;0.73;;;13.80;99.90;;;;;;6256597;28;67270;-67
2022/09/14 07:59:34;;;;;;;2.67;0.88;;;13.80;99.90;;;;;;6280679;28;20303;-67
2022/09/14 08:05:09;;;;;;;2.35;0.80;;;13.90;99.90;;;;;;6307285;27;20573;-68
2022/09/14 08:08:14;;;;;;;1.13;1.00;;;14.00;99.90;;;;;;6282208;28;20594;-68
2022/09/14 08:11:20;;;;;;;0.90;0.90;;;14.00;99.90;;;;;;6282938;28;20263;-68
2022/09/14 08:14:25;;;;;;;2.72;0.88;;;14.00;99.90;;;;;;6281794;28;20469;-68
2022/09/14 08:17:30;;;;;;;1.52;0.80;;;13.90;99.90;;;;;;6281618;28;20263;-68
2022/09/14 08:20:36;;;;;;;1.38;1.00;;;13.80;99.90;;;;;;6282329;28;20509;-68
2022/09/14 08:23:41;;;;;;;3.00;0.95;;;13.80;99.90;;;;;;6281339;28;20303;-68
2022/09/14 08:26:47;;;;;;;0.80;0.80;;;13.70;99.90;;;;;;6282316;28;20546;-68
2022/09/14 08:29:51;;;;;;;0.93;0.93;;;13.80;99.90;;;;;;6281819;28;20296;-67
2022/09/14 08:32:56;;;;;;;1.83;1.30;;;13.70;99.90;;;;;;6268820;28;20480;-67
2022/09/14 08:36:08;;;;;;;1.30;1.30;;;13.70;99.90;;;;;;6238710;28;20247;-68
2022/09/14 08:39:15;;;;;;;1.50;1.30;;;13.80;99.90;;;;;;6231705;28;20262;-69
2022/09/14 08:42:23;;;;;;;0.90;0.90;;;13.90;99.90;;;;;;6255409;28;20232;-68
2022/09/14 08:45:29;;;;;;;0.90;0.90;;;14.00;99.90;;;;;;6263233;28;20292;-67
2022/09/14 08:48:47;;;;;;;0.75;0.75;;;14.00;99.90;;;;;;6279833;28;80293;-67
2022/09/14 08:51:54;;;;;;;2.78;0.82;;;14.00;99.90;;;;;;6232012;28;20233;-67
2022/09/14 08:55:01;;;;;;;0.70;0.70;;;14.00;99.90;;;;;;6231581;28;20238;-67
2022/09/14 08:58:19;;;;;;;2.05;1.10;;;14.10;99.90;;;;;;6231299;28;20232;-67
2022/09/14 09:01:35;;;;;;;1.02;1.02;;;14.10;99.90;;;;;;6268847;28;77205;-67
2022/09/14 09:04:52;;;;;;;1.95;0.80;;;14.10;99.90;;;;;;6280668;28;20244;-67
2022/09/14 09:08:03;;;;;;;1.10;0.60;;;14.10;99.90;;;;;;6281217;28;20265;-67
2022/09/14 09:11:12;;;;;;;1.95;1.35;;;14.10;99.90;;;;;;6281379;28;20188;-67
2022/09/14 09:14:21;;;;;;;2.40;0.82;;;14.00;99.90;;;;;;6260519;28;20312;-66
2022/09/14 09:17:31;;;;;;;0.68;0.68;;;14.10;99.90;;;;;;6239476;28;20481;-67
2022/09/14 09:20:39;;;;;;;2.45;0.90;;;14.10;99.90;;;;;;6240362;28;20198;-67
2022/09/14 09:23:45;;;;;;;0.90;0.82;;;14.10;99.90;;;;;;6239693;28;20233;-67
2022/09/14 09:26:49;;;;;;;2.55;0.80;;;14.00;99.90;;;;;;6239890;28;20244;-67
2022/09/14 09:29:53;;;;;;;1.52;0.70;;;14.00;99.90;;;;;;6239507;28;20237;-67
2022/09/14 09:32:58;;;;;;;1.33;0.90;;;13.90;99.90;;;;;;6238076;28;20229;-67
2022/09/14 09:36:28;;;;;;;1.23;0.75;;;14.00;99.90;;;;;;6238794;28;20223;-66
2022/09/14 09:39:34;;;;;;;0.90;0.80;;;14.00;99.90;;;;;;6237784;28;20229;-66
2022/09/14 09:42:38;;;;;;;1.23;0.82;;;14.00;99.90;;;;;;6238882;28;20185;-67
2022/09/14 09:45:57;;;;;;;1.27;0.90;;;14.00;99.90;;;;;;6239419;28;20284;-68
2022/09/14 09:49:05;;;;;;;0.70;0.70;;;14.10;99.90;;;;;;6239129;28;20275;-68
2022/09/14 09:52:11;;;;;;;0.90;0.90;;;14.20;99.90;;;;;;6239180;28;20492;-67
2022/09/14 09:55:20;;;;;;;0.82;0.82;;;14.20;99.90;;;;;;6238995;28;20233;-68
2022/09/14 09:58:35;;;;;;;0.90;0.90;;;14.30;99.90;;;;;;6238940;28;20225;-68
2022/09/14 10:01:39;;;;;;;0.70;0.70;;;14.40;99.90;;;;;;6239107;28;20186;-68
2022/09/14 10:04:59;;;;;;;1.20;1.10;;;14.60;99.90;;;;;;6238072;28;20249;-67
2022/09/14 10:08:05;;;;;;;0.80;0.80;;;14.70;99.90;;;;;;6238891;28;20233;-67
2022/09/14 10:11:36;;;;;;;1.25;1.05;;;14.80;99.90;;;;;;6239041;28;20236;-67
2022/09/14 10:14:41;;;;;;;1.20;1.10;;;14.90;99.90;;;;;;6238634;28;20273;-66
2022/09/14 10:18:07;;;;;;;0.75;0.75;;;15.10;99.90;;;;;;6238620;28;20225;-67
2022/09/14 10:21:11;;;;;;;1.00;1.00;;;15.10;99.90;;;;;;6238650;28;20288;-67
2022/09/14 10:24:19;;;;;;;2.42;1.10;;;15.20;99.90;;;;;;6237989;28;20394;-68
2022/09/14 10:27:39;;;;;;;1.00;0.90;;;15.30;99.90;;;;;;6236818;28;20208;-68
2022/09/14 10:30:49;;;;;;;0.98;0.98;;;15.30;99.90;;;;;;6238633;28;20186;-67
2022/09/14 10:33:56;;;;;;;6.80;1.48;;;15.20;99.90;;;;;;6237696;28;20237;-68
2022/09/14 10:37:30;;;;;;;1.13;1.08;;;15.20;99.90;;;;;;6238494;28;20201;-68
2022/09/14 10:40:38;;;;;;;1.25;0.90;;;15.30;99.90;;;;;;6238001;28;20221;-68
2022/09/14 10:44:38;;;;;;;2.20;0.80;;;15.30;99.90;;;;;;6248441;28;20227;-68
2022/09/14 10:48:17;;;;;;;0.93;0.93;;;15.20;99.90;;;;;;6243842;28;20235;-68
2022/09/14 10:51:38;;;;;;;0.80;0.80;;;15.30;99.90;;;;;;6262331;28;20311;-68
2022/09/14 10:55:10;;;;;;;2.85;0.90;;;15.30;99.90;;;;;;6262092;28;20233;-69
2022/09/14 10:58:31;;;;;;;1.30;0.70;;;15.20;99.90;;;;;;6261913;28;20278;-68
2022/09/14 11:02:02;;;;;;;1.00;1.00;;;15.20;99.90;;;;;;6261982;28;20364;-68
2022/09/14 11:05:20;;;;;;;1.35;0.90;;;15.20;99.90;;;;;;6261913;28;20562;-67
2022/09/14 11:08:31;;;;;;;3.60;0.73;;;15.40;99.90;;;;;;6261622;28;20619;-68
2022/09/14 11:11:48;;;;;;;1.85;0.85;;;15.40;99.90;;;;;;6261859;28;20423;-69
2022/09/14 11:15:07;;;;;;;1.48;1.08;;;15.50;99.90;;;;;;6241210;28;20256;-67
2022/09/14 11:18:22;;;;;;;0.90;0.90;;;15.70;99.90;;;;;;6236673;28;20423;-68
2022/09/14 11:21:44;;;;;;;1.20;0.85;;;15.70;99.90;;;;;;6237499;28;20186;-68
2022/09/14 11:24:53;;;;;;;1.77;0.90;;;15.80;99.90;;;;;;6236859;28;20279;-68
2022/09/14 11:28:00;;;;;;;0.95;0.95;;;15.90;99.90;;;;;;6236756;28;20335;-67
2022/09/14 11:31:09;;;;;;;2.38;1.00;;;15.90;99.90;;;;;;6237428;28;20253;-68
2022/09/14 11:34:19;;;;;;;2.63;1.10;;;16.00;99.90;;;;;;6236676;28;20344;-67
2022/09/14 11:37:34;;;;;;;1.08;0.90;;;16.10;99.90;;;;;;6236271;28;20252;-68
2022/09/14 11:40:45;;;;;;;1.85;1.15;;;16.10;99.90;;;;;;6237291;28;20326;-68
2022/09/14 11:43:55;;;;;;;1.73;0.98;;;16.20;99.90;;;;;;6236532;28;20271;-67
2022/09/14 11:47:06;;;;;;;1.13;0.90;;;16.20;99.90;;;;;;6236972;28;20186;-67
2022/09/14 11:50:20;;;;;;;3.03;1.00;;;16.20;99.90;;;;;;6236680;28;20304;-67
2022/09/14 11:53:26;;;;;;;1.65;1.60;;;16.10;99.90;;;;;;6236692;28;20229;-68
2022/09/14 11:56:31;;;;;;;3.08;1.40;;;16.00;99.90;;;;;;6236502;28;20433;-67
2022/09/14 11:59:50;;;;;;;2.25;1.58;;;16.10;99.90;;;;;;6236278;28;20427;-67
2022/09/14 12:03:17;;;;;;;0.82;0.82;;;16.10;99.90;;;;;;6235777;28;20564;-67
2022/09/14 12:06:49;;;;;;;1.00;1.00;;;16.20;99.90;;;;;;6236257;28;20559;-68
2022/09/14 12:10:05;;;;;;;1.00;1.00;;;16.20;99.90;;;;;;6236235;28;20221;-68
2022/09/14 12:13:20;;;;;;;18.23;1.90;;;16.30;99.90;;;;;;6235674;28;20299;-68
2022/09/14 12:16:24;;;;;;;2.45;2.25;;;16.30;99.90;;;;;;6236284;28;20505;-68
2022/09/14 12:19:28;;;;;;;2.70;1.40;;;16.30;99.90;;;;;;6236040;28;20228;-68
2022/09/14 12:22:35;;;;;;;10.73;1.70;;;16.40;99.90;;;;;;6236364;28;20220;-68
2022/09/14 12:26:07;;;;;;;2.75;0.95;;;16.40;99.90;;;;;;6236677;28;20220;-68
2022/09/14 12:29:33;;;;;;;14.27;1.90;;;16.50;99.90;;;;;;6235903;28;20477;-67
2022/09/14 12:32:43;;;;;;;0.90;0.90;;;16.50;99.90;;;;;;6235852;28;20190;-68
2022/09/14 12:35:47;;;;;;;1.75;0.70;;;16.50;99.90;;;;;;6236438;28;20190;-68
2022/09/14 12:39:22;;;;;;;1.88;0.90;;;16.60;99.90;;;;;;6235730;28;20300;-68
2022/09/14 12:42:31;;;;;;;7.30;1.10;;;16.60;99.90;;;;;;6236067;28;20186;-67
2022/09/14 12:45:51;;;;;;;6.88;1.52;;;16.60;99.90;;;;;;6236414;28;20213;-68
2022/09/14 12:48:57;;;;;;;6.63;2.10;;;16.70;99.90;;;;;;6235948;28;20233;-68
2022/09/14 12:52:14;;;;;;;2.92;1.10;;;16.80;99.90;;;;;;6240987;28;20253;-67
2022/09/14 12:55:54;;;;;;;2.80;0.90;;;16.70;99.90;;;;;;6240012;28;20253;-68
2022/09/14 12:59:07;;;;;;;0.90;0.90;;;16.70;99.90;;;;;;6240120;28;20435;-68
2022/09/14 13:02:42;;;;;;;0.93;0.90;;;16.70;99.90;;;;;;6240063;28;20381;-68
2022/09/14 13:05:46;;;;;;;1.65;0.88;;;16.80;99.90;;;;;;6239673;28;20509;-68
2022/09/14 13:08:54;;;;;;;5.85;1.40;;;16.70;99.90;;;;;;6239874;28;20233;-68
2022/09/14 13:12:01;;;;;;;0.90;0.90;;;16.90;99.90;;;;;;6240529;28;20235;-68
2022/09/14 13:15:16;;;;;;;1.95;0.80;;;16.80;99.90;;;;;;6240067;28;20306;-67
2022/09/14 13:18:31;;;;;;;2.65;0.75;;;16.90;99.90;;;;;;6239764;28;20297;-68
2022/09/14 13:21:36;;;;;;;2.45;1.02;;;16.90;99.90;;;;;;6240285;28;20192;-68
2022/09/14 13:24:45;;;;;;;1.15;1.00;;;17.00;99.90;;;;;;6239446;28;20235;-68
2022/09/14 13:27:49;;;;;;;0.90;0.90;;;16.90;99.90;;;;;;6239325;28;20245;-68
2022/09/14 13:30:57;;;;;;;0.95;0.95;;;16.90;99.90;;;;;;6239699;28;20446;-68
2022/09/14 13:34:04;;;;;;;0.80;0.80;;;16.80;99.90;;;;;;6239414;28;20415;-67
2022/09/14 13:37:09;;;;;;;3.03;0.80;;;16.90;99.90;;;;;;6239942;28;20189;-67
2022/09/14 13:40:13;;;;;;;1.80;0.90;;;16.80;99.90;;;;;;6239191;28;20325;-67
2022/09/14 13:43:18;;;;;;;0.88;0.88;;;16.90;99.90;;;;;;6239329;28;20254;-67
2022/09/14 13:46:26;;;;;;;2.10;0.65;;;16.90;99.90;;;;;;6239451;28;20209;-69
2022/09/14 13:49:31;;;;;;;2.75;1.10;;;17.00;99.90;;;;;;6239287;28;20241;-69
2022/09/14 13:52:37;;;;;;;0.77;0.77;;;17.00;99.90;;;;;;6239159;28;20186;-68
2022/09/14 13:56:14;;;;;;;0.80;0.80;;;17.00;99.90;;;;;;6239333;28;20197;-68
2022/09/14 13:59:21;;;;;;;1.63;0.85;;;16.90;99.90;;;;;;6238916;28;20288;-68
2022/09/14 14:02:27;;;;;;;1.02;0.80;;;16.90;99.90;;;;;;6238317;28;20264;-68
2022/09/14 14:05:34;;;;;;;0.80;0.80;;;16.90;99.90;;;;;;6239128;28;20280;-68
2022/09/14 14:08:39;;;;;;;1.50;0.73;;;17.10;99.90;;;;;;6238248;28;20228;-68
2022/09/14 14:11:45;;;;;;;0.98;0.88;;;17.00;99.90;;;;;;6238968;28;20261;-68
2022/09/14 14:14:58;;;;;;;0.70;0.70;;;16.90;99.90;;;;;;6238603;28;20231;-69
2022/09/14 14:18:31;;;;;;;2.50;2.40;;;16.90;99.90;;;;;;6238061;28;20580;-69
2022/09/14 14:21:35;;;;;;;1.40;1.40;;;16.80;99.90;;;;;;6238948;28;20257;-69
2022/09/14 14:24:40;;;;;;;2.42;1.40;;;16.80;99.90;;;;;;6238388;28;20300;-69
2022/09/14 14:28:13;;;;;;;1.50;1.35;;;16.80;99.90;;;;;;6237751;28;20540;-69
2022/09/14 14:31:25;;;;;;;1.67;1.30;;;16.80;99.90;;;;;;6238288;28;20528;-69
2022/09/14 14:34:30;;;;;;;1.80;1.00;;;16.80;99.90;;;;;;6238169;28;20229;-69
2022/09/14 14:37:35;;;;;;;1.27;1.27;;;16.80;99.90;;;;;;6237608;28;20190;-69
2022/09/14 14:40:40;;;;;;;3.88;1.30;;;16.90;99.90;;;;;;6238476;28;20192;-69
2022/09/14 14:43:45;;;;;;;2.05;1.95;;;16.70;99.90;;;;;;6237731;28;20254;-68
2022/09/14 14:46:49;;;;;;;2.20;2.10;;;16.70;99.90;;;;;;6238320;28;20255;-68
2022/09/14 14:49:55;;;;;;;2.35;2.25;;;16.70;99.90;;;;;;6237369;28;20225;-68
2022/09/14 14:53:00;;;;;;;3.53;3.22;;;16.70;99.90;;;;;;6237189;28;20463;-68
2022/09/14 14:56:04;;;;;;;1.30;1.30;;;16.80;99.90;;;;;;6238005;28;20190;-68
2022/09/14 14:59:28;;;;;;;0.80;0.80;;;16.70;99.90;;;;;;6237708;28;20230;-68
2022/09/14 15:02:32;;;;;;;1.25;0.82;;;16.70;99.90;;;;;;6236739;28;20493;-67
2022/09/14 15:05:42;;;;;;;0.98;0.98;;;16.60;99.90;;;;;;6237791;28;20190;-69
2022/09/14 15:08:46;;;;;;;3.00;0.77;;;16.60;99.90;;;;;;6237461;28;20300;-68
2022/09/14 15:11:52;;;;;;;1.10;1.00;;;16.50;99.90;;;;;;6237362;28;20248;-68
2022/09/14 15:14:57;;;;;;;0.70;0.70;;;16.50;99.90;;;;;;6237185;28;20300;-68
2022/09/14 15:18:01;;;;;;;0.85;0.85;;;16.40;99.90;;;;;;6237227;28;20297;-68
2022/09/14 15:21:07;;;;;;;3.30;1.05;;;16.30;99.90;;;;;;6237602;28;20212;-68
2022/09/14 15:24:12;;;;;;;1.23;1.02;;;16.30;99.90;;;;;;6237130;28;20271;-68
2022/09/14 15:27:16;;;;;;;2.80;1.10;;;16.40;99.90;;;;;;6236983;28;20465;-68
2022/09/14 15:30:21;;;;;;;1.25;1.00;;;16.50;99.90;;;;;;6236482;28;20316;-68
2022/09/14 15:33:25;;;;;;;1.73;0.90;;;16.50;99.90;;;;;;6236952;28;20229;-68
2022/09/14 15:36:38;;;;;;;1.98;1.10;;;16.50;99.90;;;;;;6237256;28;20189;-68
2022/09/14 15:39:43;;;;;;;1.80;1.00;;;16.50;99.90;;;;;;6236690;28;20245;-68
2022/09/14 15:42:53;;;;;;;1.00;1.00;;;16.50;99.90;;;;;;6236741;28;20231;-68
2022/09/14 15:46:02;;;;;;;1.25;1.25;;;16.50;99.90;;;;;;6236624;28;20197;-68
2022/09/14 15:49:09;;;;;;;1.00;1.00;;;16.40;99.90;;;;;;6235652;28;20224;-69
2022/09/14 15:52:15;;;;;;;1.50;1.38;;;16.50;99.90;;;;;;6237115;28;20186;-68
2022/09/14 15:55:19;;;;;;;0.98;0.90;;;16.40;99.90;;;;;;6236536;28;20602;-69
2022/09/14 15:58:24;;;;;;;0.90;0.90;;;16.40;99.90;;;;;;6236511;28;20295;-69
2022/09/14 16:01:29;;;;;;;1.38;1.20;;;16.30;99.90;;;;;;6236348;28;20185;-68
2022/09/14 16:04:36;;;;;;;1.08;1.08;;;16.20;99.90;;;;;;6236116;28;20240;-68
2022/09/14 16:07:42;;;;;;;3.20;0.98;;;16.10;99.90;;;;;;6235207;28;20252;-68
2022/09/14 16:10:47;;;;;;;0.85;0.85;;;16.20;99.90;;;;;;6236890;28;20260;-69
2022/09/14 16:13:51;;;;;;;2.90;2.80;;;16.20;99.90;;;;;;6236084;28;20241;-69
2022/09/14 16:16:55;;;;;;;2.15;1.10;;;16.10;99.90;;;;;;6236351;28;20189;-69
2022/09/14 16:20:02;;;;;;;1.05;1.05;;;16.10;99.90;;;;;;6236196;28;20251;-68
2022/09/14 16:23:08;;;;;;;0.90;0.90;;;16.10;99.90;;;;;;6236528;28;20231;-68
2022/09/14 16:26:15;;;;;;;2.28;1.00;;;16.20;99.90;;;;;;6240421;28;20189;-68
2022/09/14 16:29:22;;;;;;;3.72;0.98;;;16.20;99.90;;;;;;6241108;28;20229;-68